Time,TemperatureF,DewpointF,PressureIn,WindDirection,WindDirectionDegrees,WindSpeedMPH,WindSpeedGustMPH,Humidity,HourlyPrecipIn,Conditions,Clouds,dailyrainin,SoftwareType,DateUTC
2013-10-11 00:06:00,61.5,57.0,30.00,SSE,159,1.0,4.0,84,0.00,,,0.00,weatherlink.com 1.10,2013-10-11 05:06:00,
2013-10-11 00:21:00,60.9,56.0,30.00,SSE,156,1.0,2.0,85,0.00,,,0.00,weatherlink.com 1.10,2013-10-11 05:21:00,
2013-10-11 00:36:00,60.4,56.0,30.00,SSE,156,1.0,3.0,86,0.00,,,0.00,weatherlink.com 1.10,2013-10-11 05:36:00,
2013-10-11 00:51:00,59.8,56.0,30.00,SSE,156,0.0,2.0,87,0.00,,,0.00,weatherlink.com 1.10,2013-10-11 05:51:00,
2013-10-11 01:06:00,59.4,56.0,30.00,SSE,156,0.0,2.0,89,0.00,,,0.00,weatherlink.com 1.10,2013-10-11 06:06:00,
2013-10-11 01:21:00,58.9,56.0,30.00,SSE,156,0.0,2.0,89,0.00,,,0.00,weatherlink.com 1.10,2013-10-11 06:21:00,
2013-10-11 01:36:00,58.5,56.0,30.00,SSE,156,1.0,3.0,91,0.00,,,0.00,weatherlink.com 1.10,2013-10-11 06:36:00,
2013-10-11 01:51:00,58.7,56.0,29.99,SSE,153,0.0,4.0,91,0.00,,,0.00,weatherlink.com 1.10,2013-10-11 06:51:00,
2013-10-11 02:06:00,58.8,56.0,30.00,SSE,148,1.0,4.0,90,0.00,,,0.00,weatherlink.com 1.10,2013-10-11 07:06:00,
2013-10-11 02:21:00,58.7,56.0,29.99,SSE,155,1.0,3.0,91,0.00,,,0.00,weatherlink.com 1.10,2013-10-11 07:21:00,
2013-10-11 02:36:00,58.3,56.0,29.99,SSE,155,0.0,3.0,91,0.00,,,0.00,weatherlink.com 1.10,2013-10-11 07:36:00,
2013-10-11 02:51:00,57.7,55.0,29.99,SSE,155,1.0,1.0,91,0.00,,,0.00,weatherlink.com 1.10,2013-10-11 07:51:00,
2013-10-11 03:06:00,57.1,55.0,29.99,SSE,155,0.0,2.0,92,0.00,,,0.00,weatherlink.com 1.10,2013-10-11 08:06:00,
2013-10-11 03:21:00,56.8,55.0,30.00,SSE,155,0.0,1.0,93,0.00,,,0.00,weatherlink.com 1.10,2013-10-11 08:21:00,
2013-10-11 03:36:00,56.6,55.0,30.01,SSE,155,0.0,2.0,94,0.00,,,0.00,weatherlink.com 1.10,2013-10-11 08:36:00,
2013-10-11 03:51:00,56.3,55.0,30.01,SSE,155,0.0,2.0,95,0.00,,,0.00,weatherlink.com 1.10,2013-10-11 08:51:00,
2013-10-11 04:06:00,56.2,55.0,30.02,SSE,155,0.0,2.0,95,0.00,,,0.00,weatherlink.com 1.10,2013-10-11 09:06:00,
2013-10-11 04:21:00,56.1,55.0,30.02,SSE,155,0.0,3.0,95,0.00,,,0.00,weatherlink.com 1.10,2013-10-11 09:21:00,
2013-10-11 04:36:00,56.1,55.0,30.02,SSE,154,1.0,2.0,95,0.00,,,0.00,weatherlink.com 1.10,2013-10-11 09:36:00,
2013-10-11 04:51:00,56.0,55.0,30.02,SSE,148,2.0,2.0,95,0.00,,,0.00,weatherlink.com 1.10,2013-10-11 09:51:00,
2013-10-11 05:06:00,55.8,54.0,30.02,SSE,148,0.0,2.0,95,0.00,,,0.00,weatherlink.com 1.10,2013-10-11 10:06:00,
2013-10-11 05:21:00,55.7,54.0,30.02,SE,139,2.0,4.0,95,0.00,,,0.00,weatherlink.com 1.10,2013-10-11 10:21:00,
2013-10-11 05:36:00,55.6,54.0,30.02,SE,140,0.0,3.0,95,0.00,,,0.00,weatherlink.com 1.10,2013-10-11 10:36:00,
2013-10-11 05:51:00,55.5,54.0,30.02,SE,144,0.0,3.0,95,0.00,,,0.00,weatherlink.com 1.10,2013-10-11 10:51:00,
2013-10-11 06:06:00,55.4,54.0,30.02,SE,144,0.0,4.0,95,0.00,,,0.00,weatherlink.com 1.10,2013-10-11 11:06:00,
2013-10-11 06:21:00,55.1,54.0,30.02,SE,131,0.0,4.0,95,0.00,,,0.00,weatherlink.com 1.10,2013-10-11 11:21:00,
2013-10-11 06:36:00,54.9,54.0,30.02,SE,132,1.0,4.0,96,0.00,,,0.00,weatherlink.com 1.10,2013-10-11 11:36:00,
2013-10-11 06:51:00,55.0,54.0,30.02,SE,142,1.0,4.0,96,0.00,,,0.00,weatherlink.com 1.10,2013-10-11 11:51:00,
2013-10-11 07:06:00,54.8,54.0,30.01,SSE,147,2.0,4.0,96,0.00,,,0.00,weatherlink.com 1.10,2013-10-11 12:06:00,
2013-10-11 07:21:00,54.6,54.0,30.01,SSE,148,2.0,4.0,96,0.00,,,0.00,weatherlink.com 1.10,2013-10-11 12:21:00,
2013-10-11 07:36:00,54.7,54.0,30.02,SE,140,0.0,4.0,96,0.00,,,0.00,weatherlink.com 1.10,2013-10-11 12:36:00,
2013-10-11 07:51:00,55.0,54.0,30.02,SE,139,2.0,4.0,97,0.00,,,0.00,weatherlink.com 1.10,2013-10-11 12:51:00,
2013-10-11 08:06:00,55.2,54.0,30.02,SE,141,1.0,4.0,96,0.01,,,0.01,weatherlink.com 1.10,2013-10-11 13:06:00,
2013-10-11 08:21:00,55.7,55.0,30.03,SE,142,1.0,4.0,96,0.01,,,0.01,weatherlink.com 1.10,2013-10-11 13:21:00,
2013-10-11 08:36:00,56.4,55.0,30.03,SSE,159,2.0,5.0,96,0.01,,,0.01,weatherlink.com 1.10,2013-10-11 13:36:00,
2013-10-11 08:51:00,57.1,56.0,30.02,SSE,161,1.0,6.0,96,0.01,,,0.01,weatherlink.com 1.10,2013-10-11 13:51:00,
2013-10-11 09:06:00,58.0,57.0,30.02,SSE,150,5.0,6.0,95,0.00,,,0.01,weatherlink.com 1.10,2013-10-11 14:06:00,
2013-10-11 09:21:00,60.2,58.0,30.02,SE,143,3.0,7.0,92,0.00,,,0.01,weatherlink.com 1.10,2013-10-11 14:21:00,
2013-10-11 09:36:00,61.9,59.0,30.02,SSE,155,3.0,8.0,90,0.00,,,0.01,weatherlink.com 1.10,2013-10-11 14:36:00,
2013-10-11 09:51:00,63.2,59.0,30.02,South,169,8.0,8.0,87,0.00,,,0.01,weatherlink.com 1.10,2013-10-11 14:51:00,
2013-10-11 10:06:00,64.6,60.0,30.02,SSE,150,4.0,9.0,84,0.00,,,0.01,weatherlink.com 1.10,2013-10-11 15:06:00,
2013-10-11 10:21:00,65.9,60.0,30.02,SSW,196,2.0,8.0,82,0.00,,,0.01,weatherlink.com 1.10,2013-10-11 15:21:00,
2013-10-11 10:36:00,67.7,60.0,30.01,South,171,4.0,11.0,77,0.00,,,0.01,weatherlink.com 1.10,2013-10-11 15:36:00,
2013-10-11 10:51:00,68.8,61.0,30.01,ESE,113,4.0,12.0,75,0.00,,,0.01,weatherlink.com 1.10,2013-10-11 15:51:00,
2013-10-11 11:06:00,69.5,61.0,30.00,SSE,165,4.0,10.0,73,0.00,,,0.01,weatherlink.com 1.10,2013-10-11 16:06:00,
2013-10-11 11:21:00,70.0,61.0,30.00,SSE,153,10.0,16.0,73,0.00,,,0.01,weatherlink.com 1.10,2013-10-11 16:21:00,
2013-10-11 11:36:00,70.3,59.0,30.00,South,170,8.0,15.0,68,0.00,,,0.01,weatherlink.com 1.10,2013-10-11 16:36:00,
2013-10-11 11:51:00,71.7,59.0,29.99,SSE,166,9.0,15.0,64,0.00,,,0.01,weatherlink.com 1.10,2013-10-11 16:51:00,
2013-10-11 12:06:00,72.5,58.0,29.99,South,188,5.0,15.0,60,0.00,,,0.01,weatherlink.com 1.10,2013-10-11 17:06:00,
2013-10-11 12:21:00,73.5,58.0,29.98,SSW,192,7.0,15.0,58,0.00,,,0.01,weatherlink.com 1.10,2013-10-11 17:21:00,
2013-10-11 12:36:00,73.6,58.0,29.97,SSE,155,11.0,16.0,59,0.00,,,0.01,weatherlink.com 1.10,2013-10-11 17:36:00,
2013-10-11 12:51:00,74.2,57.0,29.96,South,180,13.0,14.0,56,0.00,,,0.01,weatherlink.com 1.10,2013-10-11 17:51:00,
2013-10-11 13:06:00,74.4,58.0,29.95,SSE,150,2.0,16.0,56,0.00,,,0.00,weatherlink.com 1.10,2013-10-11 18:06:00,
2013-10-11 13:22:00,75.1,58.0,29.94,SE,132,8.0,15.0,55,0.00,,,0.00,weatherlink.com 1.10,2013-10-11 18:22:00,
2013-10-11 13:37:00,75.9,58.0,29.93,South,182,6.0,13.0,55,0.00,,,0.00,weatherlink.com 1.10,2013-10-11 18:37:00,
2013-10-11 13:52:00,76.1,57.0,29.93,SSE,160,10.0,20.0,51,0.00,,,0.00,weatherlink.com 1.10,2013-10-11 18:52:00,
2013-10-11 14:07:00,76.1,57.0,29.92,South,175,7.0,15.0,52,0.00,,,0.00,weatherlink.com 1.10,2013-10-11 19:07:00,
2013-10-11 14:22:00,76.5,57.0,29.91,SSE,162,9.0,14.0,51,0.00,,,0.00,weatherlink.com 1.10,2013-10-11 19:22:00,
2013-10-11 14:37:00,77.1,57.0,29.91,SSE,153,4.0,14.0,50,0.00,,,0.00,weatherlink.com 1.10,2013-10-11 19:37:00,
2013-10-11 14:52:00,77.0,56.0,29.90,SE,130,7.0,17.0,48,0.00,,,0.00,weatherlink.com 1.10,2013-10-11 19:52:00,
2013-10-11 15:07:00,77.1,56.0,29.90,South,182,7.0,16.0,48,0.00,,,0.00,weatherlink.com 1.10,2013-10-11 20:07:00,
2013-10-11 15:22:00,77.0,56.0,29.89,SSW,206,12.0,18.0,48,0.00,,,0.00,weatherlink.com 1.10,2013-10-11 20:22:00,
2013-10-11 15:37:00,77.3,56.0,29.89,SSE,159,5.0,16.0,48,0.00,,,0.00,weatherlink.com 1.10,2013-10-11 20:37:00,
2013-10-11 15:52:00,77.4,57.0,29.89,South,175,11.0,13.0,50,0.00,,,0.00,weatherlink.com 1.10,2013-10-11 20:52:00,
2013-10-11 16:07:00,77.6,56.0,29.89,South,181,5.0,14.0,48,0.00,,,0.00,weatherlink.com 1.10,2013-10-11 21:07:00,
2013-10-11 16:22:00,77.5,56.0,29.89,SSW,193,9.0,11.0,47,0.00,,,0.00,weatherlink.com 1.10,2013-10-11 21:22:00,
2013-10-11 16:37:00,77.4,56.0,29.88,SE,140,10.0,13.0,48,0.00,,,0.00,weatherlink.com 1.10,2013-10-11 21:37:00,
2013-10-11 16:52:00,77.0,56.0,29.89,SSE,148,7.0,13.0,48,0.00,,,0.00,weatherlink.com 1.10,2013-10-11 21:52:00,
2013-10-11 17:07:00,76.7,56.0,29.89,South,174,8.0,12.0,49,0.00,,,0.00,weatherlink.com 1.10,2013-10-11 22:07:00,
2013-10-11 17:37:00,75.5,55.0,29.88,South,171,6.0,8.0,50,0.00,,,0.00,weatherlink.com 1.10,2013-10-11 22:37:00,
2013-10-11 17:52:00,74.8,55.0,29.89,South,175,5.0,11.0,50,0.00,,,0.00,weatherlink.com 1.10,2013-10-11 22:52:00,
2013-10-11 18:07:00,73.5,55.0,29.89,SSE,160,4.0,10.0,52,0.00,,,0.00,weatherlink.com 1.10,2013-10-11 23:07:00,
2013-10-11 18:22:00,72.4,55.0,29.89,SE,136,2.0,8.0,55,0.00,,,0.00,weatherlink.com 1.10,2013-10-11 23:22:00,
2013-10-11 18:37:00,71.2,55.0,29.89,SSE,163,5.0,9.0,57,0.00,,,0.00,weatherlink.com 1.10,2013-10-11 23:37:00,
2013-10-11 18:52:00,70.3,55.0,29.89,South,169,1.0,6.0,59,0.00,,,0.00,weatherlink.com 1.10,2013-10-11 23:52:00,
2013-10-11 19:22:00,68.8,55.0,29.90,SSE,150,3.0,6.0,61,0.00,,,0.00,weatherlink.com 1.10,2013-10-12 00:22:00,
2013-10-11 19:37:00,68.2,55.0,29.91,SSE,155,0.0,5.0,62,0.00,,,0.00,weatherlink.com 1.10,2013-10-12 00:37:00,
2013-10-11 19:52:00,67.4,54.0,29.92,SSE,155,3.0,3.0,63,0.00,,,0.00,weatherlink.com 1.10,2013-10-12 00:52:00,
2013-10-11 20:07:00,66.6,54.0,29.92,SSE,155,0.0,3.0,65,0.00,,,0.00,weatherlink.com 1.10,2013-10-12 01:07:00,
2013-10-11 20:22:00,65.7,54.0,29.92,SSE,156,2.0,2.0,67,0.00,,,0.00,weatherlink.com 1.10,2013-10-12 01:22:00,
2013-10-11 20:37:00,65.2,54.0,29.92,SSE,156,0.0,4.0,68,0.00,,,0.00,weatherlink.com 1.10,2013-10-12 01:37:00,
2013-10-11 20:52:00,65.3,54.0,29.92,SSE,157,2.0,6.0,67,0.00,,,0.00,weatherlink.com 1.10,2013-10-12 01:52:00,
2013-10-11 21:07:00,65.3,54.0,29.93,SSE,165,4.0,6.0,68,0.00,,,0.00,weatherlink.com 1.10,2013-10-12 02:07:00,
2013-10-11 21:23:00,64.9,54.0,29.93,SSE,153,3.0,7.0,69,0.00,,,0.00,weatherlink.com 1.10,2013-10-12 02:23:00,
2013-10-11 21:38:00,64.7,55.0,29.93,SSE,154,2.0,5.0,70,0.00,,,0.00,weatherlink.com 1.10,2013-10-12 02:38:00,
2013-10-11 21:53:00,64.2,55.0,29.93,SSE,153,3.0,4.0,71,0.00,,,0.00,weatherlink.com 1.10,2013-10-12 02:53:00,
2013-10-11 22:08:00,63.8,55.0,29.93,SSE,161,4.0,5.0,72,0.00,,,0.00,weatherlink.com 1.10,2013-10-12 03:08:00,
2013-10-11 22:23:00,63.9,55.0,29.93,SSE,150,2.0,6.0,72,0.00,,,0.00,weatherlink.com 1.10,2013-10-12 03:23:00,
2013-10-11 22:38:00,63.6,55.0,29.93,SSE,150,2.0,6.0,73,0.00,,,0.00,weatherlink.com 1.10,2013-10-12 03:38:00,
2013-10-11 22:53:00,63.2,55.0,29.92,SSE,153,1.0,5.0,75,0.00,,,0.00,weatherlink.com 1.10,2013-10-12 03:53:00,
2013-10-11 23:08:00,63.1,55.0,29.93,SE,130,2.0,6.0,76,0.00,,,0.00,weatherlink.com 1.10,2013-10-12 04:08:00,
2013-10-11 23:23:00,62.5,56.0,29.93,South,169,4.0,6.0,78,0.00,,,0.00,weatherlink.com 1.10,2013-10-12 04:23:00,
2013-10-11 23:38:00,62.5,56.0,29.93,SSE,156,1.0,5.0,79,0.00,,,0.00,weatherlink.com 1.10,2013-10-12 04:38:00,
2013-10-11 23:53:00,62.2,56.0,29.92,SSE,167,3.0,4.0,80,0.00,,,0.00,weatherlink.com 1.10,2013-10-12 04:53:00,